Otagawa — JD3046 — position and weather

sailwx.info

Track history (hours):
 
Tides and Currents Weather Stations Pressure Air Temp Water Temp Dewpoint Dewpoint Depression Visibility Wind Speed Wind Dir Waves Ship Positions

Otagawa

Last reported at 2014-Oct-18 10:33 UTC. Time now 2014-Oct-20 04:36 UTC.
Position N 35°04' E 139°44'.

Length 70 m; draft 4.6 m.

Type: Ship. MMSI: 431001328.

Date/timePositionNaut miles runAvg speedWind from/ knotsBaromVisibWave heightAir tempDewpointWater temp
2014-Oct-18 10:33N 35°04' E 139°44'1211.5
2014-Oct-18 09:33N 35°16' E 139°46'9 9.4
2014-Oct-18 08:33N 35°25' E 139°45'9 9.1
2014-Oct-18 07:33N 35°34' E 139°49'4 4.0
2014-Oct-18 06:33N 35°37' E 139°46'0 0.0
2014-Oct-18 05:13N 35°37' E 139°46'4 6.4
2014-Oct-18 04:33N 35°34' E 139°49'9 8.6
2014-Oct-18 03:33N 35°25' E 139°48'9 8.9
2014-Oct-18 02:33N 35°17' E 139°46'10 9.6
2014-Oct-18 01:32N 35°07' E 139°46'  
2014-Oct-15 18:24N 35°26' E 139°41'0 0.1
2014-Oct-15 17:33N 35°26' E 139°41'0 0.0
2014-Oct-15 16:33N 35°26' E 139°41'0 0.0
2014-Oct-15 15:33N 35°26' E 139°41'0 0.0
2014-Oct-15 14:33N 35°26' E 139°41'0 0.0
2014-Oct-15 13:33N 35°26' E 139°41'0 0.0
2014-Oct-15 12:33N 35°26' E 139°41'0 0.0
2014-Oct-15 11:33N 35°26' E 139°41'0 0.2
2014-Oct-15 10:33N 35°26' E 139°41'1 0.8
2014-Oct-15 09:33N 35°26' E 139°42'1 0.5
2014-Oct-15 08:33N 35°25' E 139°42'10 9.9
2014-Oct-15 07:31N 35°16' E 139°46'  
2014-Oct-10 14:33N 34°60' E 139°43'1111.2
2014-Oct-10 13:33N 35°11' E 139°46'1111.1
2014-Oct-10 12:33N 35°21' E 139°42'5 5.1
2014-Oct-10 11:34N 35°26' E 139°41'0 0.0
2014-Oct-10 10:34N 35°26' E 139°41'1 0.9
2014-Oct-10 09:34N 35°26' E 139°42'0 0.4
2014-Oct-10 08:34N 35°26' E 139°42'0 0.0
2014-Oct-10 07:31N 35°26' E 139°42'0 0.0
2014-Oct-10 06:32N 35°26' E 139°42'0 0.0
2014-Oct-10 05:32N 35°26' E 139°42'0 0.0
2014-Oct-10 04:31N 35°26' E 139°42'0 0.0
2014-Oct-10 03:32N 35°26' E 139°42'1 1.4
2014-Oct-10 02:33N 35°24' E 139°42'10 9.9
2014-Oct-10 01:33N 35°15' E 139°47'10 9.3
2014-Oct-10 00:32N 35°06' E 139°44'5 0.3
2014-Oct-09 04:04N 35°05' E 139°37'611.7
2014-Oct-09 03:33N 35°08' E 139°43'10 9.9
2014-Oct-09 02:33N 35°18' E 139°44'9 9.2
2014-Oct-09 01:33N 35°27' E 139°48'9 8.6
2014-Oct-09 00:32N 35°36' E 139°47'1 1.0
2014-Oct-08 23:31N 35°36' E 139°46'6 6.4
2014-Oct-08 22:33N 35°32' E 139°51'8 8.4
2014-Oct-08 21:33N 35°26' E 139°43'0 0.0
2014-Oct-08 20:30N 35°26' E 139°43'0 0.0
2014-Oct-08 19:33N 35°26' E 139°43'0 0.1
2014-Oct-08 18:33N 35°26' E 139°43'0 0.1
2014-Oct-08 17:33N 35°26' E 139°43'0 0.0
2014-Oct-08 16:33N 35°26' E 139°43'0 0.1
2014-Oct-08 15:33N 35°26' E 139°43'0 0.0
2014-Oct-08 14:33N 35°26' E 139°43'2 1.6
2014-Oct-08 13:33N 35°27' E 139°41'1 0.6
2014-Oct-08 12:34N 35°26' E 139°41'5 4.6
2014-Oct-08 11:33N 35°28' E 139°46'  
Track history (hours):
 
Tides and Currents Weather Stations Pressure Air Temp Water Temp Dewpoint Dewpoint Depression Visibility Wind Speed Wind Dir Waves Ship Positions

Otagawa

Last reported at 2014-Oct-18 10:33 UTC. Time now 2014-Oct-20 04:36 UTC.
Position N 35°04' E 139°44'.

Length 70 m; draft 4.6 m.

Type: Ship. MMSI: 431001328.

Date/timePositionNaut miles runAvg speedWind from/ knotsBaromVisibWave heightAir tempDewpointWater temp
2014-Oct-18 10:33N 35°04' E 139°44'1211.5
2014-Oct-18 09:33N 35°16' E 139°46'9 9.4
2014-Oct-18 08:33N 35°25' E 139°45'9 9.1
2014-Oct-18 07:33N 35°34' E 139°49'4 4.0
2014-Oct-18 06:33N 35°37' E 139°46'0 0.0
2014-Oct-18 05:13N 35°37' E 139°46'4 6.4
2014-Oct-18 04:33N 35°34' E 139°49'9 8.6
2014-Oct-18 03:33N 35°25' E 139°48'9 8.9
2014-Oct-18 02:33N 35°17' E 139°46'10 9.6
2014-Oct-18 01:32N 35°07' E 139°46'  
2014-Oct-15 18:24N 35°26' E 139°41'0 0.1
2014-Oct-15 17:33N 35°26' E 139°41'0 0.0
2014-Oct-15 16:33N 35°26' E 139°41'0 0.0
2014-Oct-15 15:33N 35°26' E 139°41'0 0.0
2014-Oct-15 14:33N 35°26' E 139°41'0 0.0
2014-Oct-15 13:33N 35°26' E 139°41'0 0.0
2014-Oct-15 12:33N 35°26' E 139°41'0 0.0
2014-Oct-15 11:33N 35°26' E 139°41'0 0.2
2014-Oct-15 10:33N 35°26' E 139°41'1 0.8
2014-Oct-15 09:33N 35°26' E 139°42'1 0.5
2014-Oct-15 08:33N 35°25' E 139°42'10 9.9
2014-Oct-15 07:31N 35°16' E 139°46'  
2014-Oct-10 14:33N 34°60' E 139°43'1111.2
2014-Oct-10 13:33N 35°11' E 139°46'1111.1
2014-Oct-10 12:33N 35°21' E 139°42'5 5.1
2014-Oct-10 11:34N 35°26' E 139°41'0 0.0
2014-Oct-10 10:34N 35°26' E 139°41'1 0.9
2014-Oct-10 09:34N 35°26' E 139°42'0 0.4
2014-Oct-10 08:34N 35°26' E 139°42'0 0.0
2014-Oct-10 07:31N 35°26' E 139°42'0 0.0
2014-Oct-10 06:32N 35°26' E 139°42'0 0.0
2014-Oct-10 05:32N 35°26' E 139°42'0 0.0
2014-Oct-10 04:31N 35°26' E 139°42'0 0.0
2014-Oct-10 03:32N 35°26' E 139°42'1 1.4
2014-Oct-10 02:33N 35°24' E 139°42'10 9.9
2014-Oct-10 01:33N 35°15' E 139°47'10 9.3
2014-Oct-10 00:32N 35°06' E 139°44'5 0.3
2014-Oct-09 04:04N 35°05' E 139°37'611.7
2014-Oct-09 03:33N 35°08' E 139°43'10 9.9
2014-Oct-09 02:33N 35°18' E 139°44'9 9.2
2014-Oct-09 01:33N 35°27' E 139°48'9 8.6
2014-Oct-09 00:32N 35°36' E 139°47'1 1.0
2014-Oct-08 23:31N 35°36' E 139°46'6 6.4
2014-Oct-08 22:33N 35°32' E 139°51'8 8.4
2014-Oct-08 21:33N 35°26' E 139°43'0 0.0
2014-Oct-08 20:30N 35°26' E 139°43'0 0.0
2014-Oct-08 19:33N 35°26' E 139°43'0 0.1
2014-Oct-08 18:33N 35°26' E 139°43'0 0.1
2014-Oct-08 17:33N 35°26' E 139°43'0 0.0
2014-Oct-08 16:33N 35°26' E 139°43'0 0.1
2014-Oct-08 15:33N 35°26' E 139°43'0 0.0
2014-Oct-08 14:33N 35°26' E 139°43'2 1.6
2014-Oct-08 13:33N 35°27' E 139°41'1 0.6
2014-Oct-08 12:34N 35°26' E 139°41'5 4.6
2014-Oct-08 11:33N 35°28' E 139°46'  

Dump ship's entire track history